Strona główna
METAR-TAF:

METAR-TAF

Lotnisko :

Piacenza, Włochy

Szerokość geograficzna: 44-55N, Długość geograficzna: 009-44E, wysokość: 134 m

Aktualna obserwacja pogody

Raport powstał 1 godzina i 7 minut temu, godzina 09:55 UTC
Wiatr 1 kt od północny wschód
Temperatura 10°C
Wilgotność 100%
Ciśnienie 1025 hPa
Widzialność: 3000 m
Rozproszone chmury na wysokości 500 ft
Przerywane chmury na wysokości 1000 ft
zamglenie

METAR: LIMS 180955Z 04001KT 3000 BR SCT005 BKN010 10/10 Q1025 RMK OVC VIS MIN 3000 WIND THR30 24002KT YLO

czas: 12:02 (11:02 UTC)


TAF: brakujący

Obserwacja i prognoza pogody dla ponad 4000 lotnisk (raport METAR i TAF).

Dostępne stacje oznaczono żółtymi i czerwonymi punktami na mapie.

Najedź kursorem aby zobaczyć nazwę stacji.

Kliknij aby zobaczyć obserwacje i prognozy pogody.

Aby zmienić mapę: kliknij na zielony przycisk z czarnym krzyżykiem, aby powiększyć; na zielony przycisk z myślnikiem, aby pomniejszyć; na zielone strzałki, aby przejść do map sąsiednich.


METAR-TAF: